createdAt,value
2023-04-15T00:00:05.999Z,5.0310
2023-04-15T00:01:06.334Z,5.0243
2023-04-15T00:02:06.645Z,5.0120
2023-04-15T00:03:07.037Z,5.0245
2023-04-15T00:04:07.782Z,5.0317
2023-04-15T00:05:08.187Z,5.0389
2023-04-15T00:06:08.550Z,5.0328
2023-04-15T00:07:08.877Z,5.0359
2023-04-15T00:08:09.156Z,5.0663
2023-04-15T00:09:09.528Z,5.0612
2023-04-15T00:10:09.823Z,4.9984
2023-04-15T00:11:10.075Z,5.0012
2023-04-15T00:12:10.389Z,5.0330
2023-04-15T00:13:10.676Z,5.0472
2023-04-15T00:14:10.969Z,5.0525
2023-04-15T00:15:11.229Z,5.1056
2023-04-15T00:16:11.507Z,5.1114
2023-04-15T00:17:11.741Z,5.1236
2023-04-15T00:18:12.038Z,5.1386
2023-04-15T00:19:12.337Z,5.1574
2023-04-15T00:20:12.637Z,5.1720
2023-04-15T00:21:12.928Z,5.1749
2023-04-15T00:22:13.231Z,5.1224
2023-04-15T00:23:13.470Z,5.1670
2023-04-15T00:24:13.767Z,5.2448
2023-04-15T00:25:14.080Z,5.3381
2023-04-15T00:26:14.344Z,5.3913
2023-04-15T00:27:14.669Z,5.4315
2023-04-15T00:28:14.964Z,5.4108
2023-04-15T00:29:15.244Z,5.3814
2023-04-15T00:30:15.559Z,5.3996
2023-04-15T00:31:15.947Z,5.4072
2023-04-15T00:32:16.258Z,5.4289
2023-04-15T00:33:16.508Z,5.4501
2023-04-15T00:34:16.791Z,5.4711
2023-04-15T00:35:17.129Z,5.5023
2023-04-15T00:36:17.416Z,5.5340
2023-04-15T00:37:17.755Z,5.5261
2023-04-15T00:38:18.026Z,5.4838
2023-04-15T00:39:18.296Z,5.4888
2023-04-15T00:40:18.576Z,5.5051
2023-04-15T00:41:18.860Z,5.4935
2023-04-15T00:42:19.101Z,5.4491
2023-04-15T00:43:19.381Z,5.4302
2023-04-15T00:44:19.920Z,5.4279
2023-04-15T00:45:20.252Z,5.3963
2023-04-15T00:46:20.675Z,5.3432
2023-04-15T00:47:21.036Z,5.2242
2023-04-15T00:48:21.360Z,5.1371
2023-04-15T00:49:21.579Z,5.1322
2023-04-15T00:50:21.860Z,5.0756
2023-04-15T00:51:22.114Z,5.0612
2023-04-15T00:52:22.437Z,5.1343
2023-04-15T00:53:22.816Z,5.1835
2023-04-15T00:54:23.140Z,5.2302
2023-04-15T00:55:23.421Z,5.2573
2023-04-15T00:56:23.689Z,5.3124
2023-04-15T00:57:23.999Z,5.3859
2023-04-15T00:58:24.340Z,5.4045
2023-04-15T00:59:24.623Z,5.4138
2023-04-15T01:00:24.963Z,5.4229
2023-04-15T01:01:25.164Z,5.4169
2023-04-15T01:02:25.483Z,5.3963
2023-04-15T01:03:25.947Z,5.3627
2023-04-15T01:04:26.564Z,5.3756
2023-04-15T01:05:26.894Z,5.4182
2023-04-15T01:06:27.173Z,5.4859
2023-04-15T01:07:27.400Z,5.4902
2023-04-15T01:08:27.697Z,5.4804
2023-04-15T01:09:27.979Z,5.5076
2023-04-15T01:10:28.244Z,5.4639
2023-04-15T01:11:28.528Z,5.3925
2023-04-15T01:12:28.736Z,5.3290
2023-04-15T01:13:29.023Z,5.2642
2023-04-15T01:14:29.316Z,5.2850
2023-04-15T01:15:29.629Z,5.3305
2023-04-15T01:16:29.983Z,5.3454
2023-04-15T01:17:30.235Z,5.3659
2023-04-15T01:18:30.484Z,5.4347
2023-04-15T01:19:30.753Z,5.4946
2023-04-15T01:20:31.071Z,5.5201
2023-04-15T01:21:31.361Z,5.5605
2023-04-15T01:22:31.665Z,5.5754
2023-04-15T01:23:31.916Z,5.5970
2023-04-15T01:24:34.326Z,5.6471
2023-04-15T01:25:36.131Z,5.6340
2023-04-15T01:26:36.445Z,5.6573
2023-04-15T01:27:36.719Z,5.6475
2023-04-15T01:28:37.050Z,5.7073
2023-04-15T01:29:37.316Z,5.7490
2023-04-15T01:30:37.588Z,5.7792
2023-04-15T01:31:37.936Z,5.7931
2023-04-15T01:32:38.322Z,5.8186
2023-04-15T01:33:38.629Z,5.8153
2023-04-15T01:34:38.924Z,5.7868
2023-04-15T01:35:39.199Z,5.7845
2023-04-15T01:36:39.478Z,5.8510
2023-04-15T01:37:39.762Z,5.8490
2023-04-15T01:38:40.042Z,5.8926
2023-04-15T01:39:40.328Z,5.9959
2023-04-15T01:40:40.556Z,6.0594
2023-04-15T01:41:40.835Z,6.0772
2023-04-15T01:42:41.147Z,6.1772
2023-04-15T01:43:41.391Z,6.1396
2023-04-15T01:44:41.672Z,6.1075
2023-04-15T01:45:41.900Z,6.0746
2023-04-15T01:46:42.155Z,6.1180
2023-04-15T01:47:42.481Z,6.1482
2023-04-15T01:48:42.730Z,6.1500
2023-04-15T01:49:42.959Z,6.1753
2023-04-15T01:50:43.237Z,6.1857
2023-04-15T01:51:43.542Z,6.1995
2023-04-15T01:52:43.918Z,6.2149
2023-04-15T01:53:44.265Z,6.2010
2023-04-15T01:54:44.629Z,6.2019
2023-04-15T01:55:44.939Z,6.2141
2023-04-15T01:56:45.271Z,6.2552
2023-04-15T01:57:45.610Z,6.2226
2023-04-15T01:58:46.040Z,6.2366
2023-04-15T01:59:46.353Z,6.2116
2023-04-15T02:00:46.702Z,6.1345
2023-04-15T02:01:47.018Z,6.0945
2023-04-15T02:02:47.339Z,5.7974
2023-04-15T02:03:47.891Z,5.7079
2023-04-15T02:04:48.524Z,5.6116
2023-04-15T02:05:48.816Z,5.6406
2023-04-15T02:06:49.170Z,5.6177
2023-04-15T02:07:49.471Z,5.6208
2023-04-15T02:08:49.739Z,5.6594
2023-04-15T02:09:50.106Z,5.6653
2023-04-15T02:10:50.456Z,5.6827
2023-04-15T02:11:50.779Z,5.7174
2023-04-15T02:12:51.075Z,5.7385
2023-04-15T02:13:51.410Z,5.7256
2023-04-15T02:14:51.753Z,5.7342
2023-04-15T02:15:52.237Z,5.7861
2023-04-15T02:16:52.623Z,5.7899
2023-04-15T02:17:52.984Z,5.8025
2023-04-15T02:18:53.329Z,5.8363
2023-04-15T02:19:53.657Z,5.8598
2023-04-15T02:20:53.953Z,5.8716
2023-04-15T02:21:54.281Z,5.8576
2023-04-15T02:22:54.599Z,5.8225
2023-04-15T02:23:54.916Z,5.7548
2023-04-15T02:24:55.222Z,5.6723
2023-04-15T02:25:55.586Z,5.5609
2023-04-15T02:26:55.934Z,5.4575
2023-04-15T02:27:56.209Z,5.3099
2023-04-15T02:28:56.576Z,5.3811
2023-04-15T02:29:56.907Z,5.3157
2023-04-15T02:30:57.320Z,5.2960
2023-04-15T02:31:57.783Z,5.3298
2023-04-15T02:32:58.134Z,5.3883
2023-04-15T02:33:58.444Z,5.4285
2023-04-15T02:34:58.779Z,5.4691
2023-04-15T02:35:59.076Z,5.4395
2023-04-15T02:36:59.384Z,5.4074
2023-04-15T02:37:59.629Z,5.4383
2023-04-15T02:39:00.127Z,5.4092
2023-04-15T02:40:00.661Z,5.3957
2023-04-15T02:41:00.907Z,5.4028
2023-04-15T02:42:01.293Z,5.4359
2023-04-15T02:43:01.542Z,5.4705
2023-04-15T02:44:01.910Z,5.5141
2023-04-15T02:45:02.349Z,5.5133
2023-04-15T02:46:02.853Z,5.5134
2023-04-15T02:47:03.287Z,5.5278
2023-04-15T02:48:03.617Z,5.4295
2023-04-15T02:49:03.914Z,5.4619
2023-04-15T02:50:04.266Z,5.4858
2023-04-15T02:51:04.563Z,5.5103
2023-04-15T02:52:04.848Z,5.5258
2023-04-15T02:53:05.173Z,5.5024
2023-04-15T02:54:05.488Z,5.4683
2023-04-15T02:55:05.796Z,5.4397
2023-04-15T02:56:06.137Z,5.4994
2023-04-15T02:57:06.458Z,5.5137
2023-04-15T02:58:06.816Z,5.5086
2023-04-15T02:59:07.154Z,5.5245
2023-04-15T03:00:07.475Z,5.5388
2023-04-15T03:01:08.128Z,5.4681
2023-04-15T03:02:08.817Z,5.4704
2023-04-15T03:03:09.276Z,5.4761
2023-04-15T03:04:09.723Z,5.5378
2023-04-15T03:05:10.153Z,5.5633
2023-04-15T03:06:10.416Z,5.5579
2023-04-15T03:07:10.753Z,5.5555
2023-04-15T03:08:11.030Z,5.5455
2023-04-15T03:09:11.357Z,5.5803
2023-04-15T03:10:11.693Z,5.5972
2023-04-15T03:11:13.175Z,5.6500
2023-04-15T03:12:13.503Z,5.6549
2023-04-15T03:13:13.849Z,5.6641
2023-04-15T03:14:14.138Z,5.6828
2023-04-15T03:15:14.499Z,5.6654
2023-04-15T03:16:14.868Z,5.6689
2023-04-15T03:17:15.198Z,5.6908
2023-04-15T03:18:15.491Z,5.7026
2023-04-15T03:19:15.849Z,5.7261
2023-04-15T03:20:16.243Z,5.7213
2023-04-15T03:21:16.661Z,5.6781
2023-04-15T03:22:17.001Z,5.6628
2023-04-15T03:23:17.315Z,5.6740
2023-04-15T03:24:17.678Z,5.6439
2023-04-15T03:25:17.969Z,5.6419
2023-04-15T03:26:18.283Z,5.5746
2023-04-15T03:27:18.606Z,5.6054
2023-04-15T03:28:19.094Z,5.6073
2023-04-15T03:29:19.626Z,5.6754
2023-04-15T03:30:19.946Z,5.7094
2023-04-15T03:31:20.315Z,5.7256
2023-04-15T03:32:20.640Z,5.7530
2023-04-15T03:33:20.985Z,5.7409
2023-04-15T03:34:21.367Z,5.7093
2023-04-15T03:35:21.730Z,5.7337
2023-04-15T03:36:22.052Z,5.7635
2023-04-15T03:37:22.381Z,5.7610
2023-04-15T03:38:22.662Z,5.7733
2023-04-15T03:39:22.974Z,5.8075
2023-04-15T03:40:23.271Z,5.8225
2023-04-15T03:41:23.559Z,5.8540
2023-04-15T03:42:23.859Z,5.8575
2023-04-15T03:43:24.234Z,5.8496
2023-04-15T03:44:24.501Z,5.8481
2023-04-15T03:45:24.818Z,5.7973
2023-04-15T03:46:25.189Z,5.7668
2023-04-15T03:47:25.589Z,5.7866
2023-04-15T03:48:25.901Z,5.7506
2023-04-15T03:49:26.241Z,5.7475
2023-04-15T03:50:26.559Z,5.7299
2023-04-15T03:51:26.889Z,5.7548
2023-04-15T03:52:27.165Z,5.7704
2023-04-15T03:53:27.561Z,5.6962
2023-04-15T03:54:27.868Z,5.6443
2023-04-15T03:55:28.212Z,5.6348
2023-04-15T03:56:28.718Z,5.6500
2023-04-15T03:57:29.297Z,5.6528
2023-04-15T03:58:29.615Z,5.6592
2023-04-15T03:59:29.981Z,5.7025
2023-04-15T04:00:30.294Z,5.7427
2023-04-15T04:01:30.714Z,5.7422
2023-04-15T04:02:31.114Z,5.7676
2023-04-15T04:03:31.671Z,5.7686
2023-04-15T04:04:32.184Z,5.7553
2023-04-15T04:05:32.817Z,5.7812
2023-04-15T04:06:33.318Z,5.7719
2023-04-15T04:07:33.673Z,5.7869
2023-04-15T04:08:33.977Z,5.7719
2023-04-15T04:09:34.314Z,5.7826
2023-04-15T04:10:34.617Z,5.8144
2023-04-15T04:11:36.353Z,5.8207
2023-04-15T04:12:36.646Z,5.8226
2023-04-15T04:13:36.970Z,5.8229
2023-04-15T04:14:37.290Z,5.8309
2023-04-15T04:15:37.757Z,5.8323
2023-04-15T04:16:38.119Z,5.8272
2023-04-15T04:17:38.431Z,5.8110
2023-04-15T04:18:38.743Z,5.8450
2023-04-15T04:19:39.038Z,5.8644
2023-04-15T04:20:39.366Z,5.8464
2023-04-15T04:21:39.730Z,5.8416
2023-04-15T04:22:40.112Z,5.8686
2023-04-15T04:23:40.467Z,5.8526
2023-04-15T04:24:40.742Z,5.8268
2023-04-15T04:25:41.052Z,5.8277
2023-04-15T04:26:41.357Z,5.8586
2023-04-15T04:27:41.648Z,5.8525
2023-04-15T04:28:41.930Z,5.8385
2023-04-15T04:29:42.269Z,5.8403
2023-04-15T04:30:42.605Z,5.8427
2023-04-15T04:31:42.932Z,5.8042
2023-04-15T04:32:43.300Z,5.8124
2023-04-15T04:33:43.593Z,5.8244
2023-04-15T04:34:43.948Z,5.7282
2023-04-15T04:35:44.321Z,5.7319
2023-04-15T04:36:44.660Z,5.6989
2023-04-15T04:37:45.027Z,5.6664
2023-04-15T04:38:45.327Z,5.7169
2023-04-15T04:39:45.669Z,5.7683
2023-04-15T04:40:46.011Z,5.7588
2023-04-15T04:41:46.359Z,5.7799
2023-04-15T04:42:46.687Z,5.7937
2023-04-15T04:43:47.007Z,5.8210
2023-04-15T04:44:47.309Z,5.8267
2023-04-15T04:45:47.714Z,5.8236
2023-04-15T04:46:48.023Z,5.8284
2023-04-15T04:47:48.331Z,5.8086
2023-04-15T04:48:48.684Z,5.8172
2023-04-15T04:49:49.013Z,5.8328
2023-04-15T04:50:49.374Z,5.8474
2023-04-15T04:51:49.629Z,5.8521
2023-04-15T04:52:49.987Z,5.8212
2023-04-15T04:53:50.322Z,5.7691
2023-04-15T04:54:50.640Z,5.7605
2023-04-15T04:55:50.976Z,5.7256
2023-04-15T04:56:51.325Z,5.7273
2023-04-15T04:57:51.699Z,5.7555
2023-04-15T04:58:52.055Z,5.7592
2023-04-15T04:59:52.354Z,5.8155
2023-04-15T05:00:52.697Z,5.8017
2023-04-15T05:01:53.056Z,5.8155
2023-04-15T05:02:53.538Z,5.8114
2023-04-15T05:03:54.135Z,5.8239
2023-04-15T05:04:54.590Z,5.8327
2023-04-15T05:05:54.966Z,5.7842
2023-04-15T05:06:55.336Z,5.7960
2023-04-15T05:07:55.756Z,5.8223
2023-04-15T05:08:56.049Z,5.8124
2023-04-15T05:09:56.397Z,5.8108
2023-04-15T05:10:56.741Z,5.7488
2023-04-15T05:11:57.049Z,5.7708
2023-04-15T05:12:57.384Z,5.7998
2023-04-15T05:13:57.707Z,5.8142
2023-04-15T05:14:58.079Z,5.8396
2023-04-15T05:15:58.440Z,5.8501
2023-04-15T05:16:58.762Z,5.8452
2023-04-15T05:17:59.194Z,5.8397
2023-04-15T05:18:59.632Z,5.8859
2023-04-15T05:20:00.211Z,5.9185
2023-04-15T05:21:00.563Z,5.9458
2023-04-15T05:22:00.872Z,5.9514
2023-04-15T05:23:01.244Z,5.9322
2023-04-15T05:24:01.553Z,5.9577
2023-04-15T05:25:01.884Z,5.9689
2023-04-15T05:26:02.218Z,5.9765
2023-04-15T05:27:02.590Z,6.0289
2023-04-15T05:28:03.008Z,6.0513
2023-04-15T05:29:03.457Z,6.0253
2023-04-15T05:30:03.947Z,6.0711
2023-04-15T05:31:04.321Z,6.0920
2023-04-15T05:32:04.652Z,6.0970
2023-04-15T05:33:05.105Z,6.1048
2023-04-15T05:34:05.512Z,6.1690
2023-04-15T05:35:05.839Z,6.1943
2023-04-15T05:36:06.172Z,6.1923
2023-04-15T05:37:06.507Z,6.1887
2023-04-15T05:38:06.857Z,6.2110
2023-04-15T05:39:07.222Z,6.2404
2023-04-15T05:40:07.590Z,6.2899
2023-04-15T05:41:07.888Z,6.2856
2023-04-15T05:42:08.260Z,6.3130
2023-04-15T05:43:08.605Z,6.2726
2023-04-15T05:44:08.896Z,6.2631
2023-04-15T05:45:09.307Z,6.2502
2023-04-15T05:46:09.736Z,6.3011
2023-04-15T05:47:10.026Z,6.2923
2023-04-15T05:48:10.443Z,6.3157
2023-04-15T05:49:10.814Z,6.3574
2023-04-15T05:50:11.160Z,6.3763
2023-04-15T05:51:11.640Z,6.3912
2023-04-15T05:52:11.964Z,6.4245
2023-04-15T05:53:12.280Z,6.4603
2023-04-15T05:54:12.585Z,6.2849
2023-04-15T05:55:12.916Z,6.3244
2023-04-15T05:56:13.242Z,6.3570
2023-04-15T05:57:13.562Z,6.4111
2023-04-15T05:58:13.887Z,6.4203
2023-04-15T05:59:14.177Z,6.4820
2023-04-15T06:00:14.569Z,6.5104
2023-04-15T06:01:14.892Z,6.5112
2023-04-15T06:02:15.335Z,6.5239
2023-04-15T06:03:15.704Z,6.5452
2023-04-15T06:04:16.028Z,6.5710
2023-04-15T06:05:16.372Z,6.5762
2023-04-15T06:06:16.890Z,6.6069
2023-04-15T06:07:17.288Z,6.6422
2023-04-15T06:08:17.615Z,6.6256
2023-04-15T06:09:17.885Z,6.7015
2023-04-15T06:10:18.164Z,6.6663
2023-04-15T06:11:18.437Z,6.7087
2023-04-15T06:12:18.867Z,6.7071
2023-04-15T06:13:19.127Z,6.7628
2023-04-15T06:14:19.423Z,6.8932
2023-04-15T06:15:19.797Z,6.9268
2023-04-15T06:16:20.081Z,6.8967
2023-04-15T06:17:20.451Z,6.9438
2023-04-15T06:18:20.702Z,6.9638
2023-04-15T06:19:21.149Z,6.9936
2023-04-15T06:20:21.397Z,6.8982
2023-04-15T06:21:21.740Z,6.8655
2023-04-15T06:22:22.091Z,6.8860
2023-04-15T06:23:22.411Z,6.9834
2023-04-15T06:24:22.732Z,7.0362
2023-04-15T06:25:23.047Z,7.0905
2023-04-15T06:26:23.321Z,7.0951
2023-04-15T06:27:23.654Z,7.1874
2023-04-15T06:28:23.940Z,7.2200
2023-04-15T06:29:24.251Z,7.1967
2023-04-15T06:30:24.639Z,7.2580
2023-04-15T06:31:24.973Z,7.3675
2023-04-15T06:32:25.297Z,7.2777
2023-04-15T06:33:25.597Z,7.2572
2023-04-15T06:34:25.941Z,7.2011
2023-04-15T06:35:26.241Z,7.0813
2023-04-15T06:36:26.608Z,7.2800
2023-04-15T06:37:26.914Z,7.4057
2023-04-15T06:38:27.334Z,7.4687
2023-04-15T06:39:27.661Z,7.5279
2023-04-15T06:40:27.996Z,7.4966
2023-04-15T06:41:28.255Z,7.5985
2023-04-15T06:42:28.575Z,7.6455
2023-04-15T06:43:28.907Z,7.6532
2023-04-15T06:44:29.268Z,7.5810
2023-04-15T06:45:29.678Z,7.5924
2023-04-15T06:46:30.005Z,7.7333
2023-04-15T06:47:30.370Z,7.7246
2023-04-15T06:48:30.794Z,7.6558
2023-04-15T06:49:31.146Z,7.6151
2023-04-15T06:50:31.517Z,7.7450
2023-04-15T06:51:31.839Z,7.8282
2023-04-15T06:52:32.184Z,7.8525
2023-04-15T06:53:32.617Z,7.8260
2023-04-15T06:54:32.943Z,7.8546
2023-04-15T06:55:33.295Z,7.7376
2023-04-15T06:56:33.629Z,7.7398
2023-04-15T06:57:35.160Z,7.8345
2023-04-15T06:58:35.603Z,7.7447
2023-04-15T06:59:36.132Z,7.6185
2023-04-15T07:00:36.467Z,7.5073
2023-04-15T07:01:36.903Z,7.6383
2023-04-15T07:02:37.319Z,7.6984
2023-04-15T07:03:37.768Z,7.6402
2023-04-15T07:04:38.351Z,7.6351
2023-04-15T07:05:38.745Z,7.6340
2023-04-15T07:06:39.242Z,7.7212
2023-04-15T07:07:39.594Z,7.7540
2023-04-15T07:08:39.902Z,7.9095
2023-04-15T07:09:40.328Z,7.9157
2023-04-15T07:10:40.600Z,7.9130
2023-04-15T07:11:40.956Z,7.9708
2023-04-15T07:12:41.274Z,7.9193
2023-04-15T07:13:41.650Z,8.0360
2023-04-15T07:14:41.989Z,7.9907
2023-04-15T07:15:42.319Z,7.9180
2023-04-15T07:16:42.720Z,8.0366
2023-04-15T07:17:43.107Z,7.9452
2023-04-15T07:18:43.473Z,7.8868
2023-04-15T07:19:43.819Z,7.7291
2023-04-15T07:20:44.111Z,7.8638
2023-04-15T07:21:44.470Z,7.8921
2023-04-15T07:22:44.805Z,7.8835
2023-04-15T07:23:45.174Z,7.8700
2023-04-15T07:24:45.583Z,7.9115
2023-04-15T07:25:45.934Z,7.8693
2023-04-15T07:26:46.299Z,7.8469
2023-04-15T07:27:46.624Z,7.9669
2023-04-15T07:28:46.968Z,7.9847
2023-04-15T07:29:47.399Z,7.9689
2023-04-15T07:30:47.818Z,8.0135
2023-04-15T07:31:48.196Z,7.9573
2023-04-15T07:32:48.529Z,8.0282
2023-04-15T07:33:48.962Z,8.0203
2023-04-15T07:34:49.358Z,7.9040
2023-04-15T07:35:49.750Z,7.8325
2023-04-15T07:36:50.075Z,7.7943
2023-04-15T07:37:50.437Z,7.8783
2023-04-15T07:38:50.836Z,7.9458
2023-04-15T07:39:51.325Z,7.9522
2023-04-15T07:40:51.676Z,7.7446
2023-04-15T07:41:52.141Z,7.6787
2023-04-15T07:42:52.515Z,7.6951
2023-04-15T07:43:52.838Z,7.8133
2023-04-15T07:44:53.242Z,8.0321
2023-04-15T07:45:53.642Z,7.9466
2023-04-15T07:46:54.035Z,7.8157
2023-04-15T07:47:54.401Z,7.9133
2023-04-15T07:48:54.745Z,7.8660
2023-04-15T07:49:55.095Z,7.8943
2023-04-15T07:50:55.445Z,7.9297
2023-04-15T07:51:55.791Z,8.0085
2023-04-15T07:52:56.128Z,7.9532
2023-04-15T07:53:56.492Z,8.0273
2023-04-15T07:54:56.811Z,7.9498
2023-04-15T07:55:57.188Z,7.9266
2023-04-15T07:56:57.569Z,7.8096
2023-04-15T07:57:57.907Z,7.8949
2023-04-15T07:58:58.292Z,7.8900
2023-04-15T07:59:58.593Z,7.8984
2023-04-15T08:00:58.963Z,7.9628
2023-04-15T08:01:59.335Z,8.0139
2023-04-15T08:02:59.819Z,8.0540
2023-04-15T08:04:00.763Z,8.1169
2023-04-15T08:05:01.265Z,8.1385
2023-04-15T08:06:01.590Z,8.1796
2023-04-15T08:07:01.943Z,8.1618
2023-04-15T08:08:02.293Z,8.2191
2023-04-15T08:09:02.885Z,8.2671
2023-04-15T08:10:03.317Z,7.9342
2023-04-15T08:11:03.662Z,7.9409
2023-04-15T08:12:04.022Z,8.0165
2023-04-15T08:13:04.352Z,8.0977
2023-04-15T08:14:04.696Z,8.1888
2023-04-15T08:15:04.996Z,8.2292
2023-04-15T08:16:05.415Z,8.2429
2023-04-15T08:17:05.792Z,8.2792
2023-04-15T08:18:06.107Z,8.3942
2023-04-15T08:19:06.471Z,8.5810
2023-04-15T08:20:06.839Z,8.4315
2023-04-15T08:21:07.170Z,8.5546
2023-04-15T08:22:15.636Z,8.5330
2023-04-15T08:23:08.562Z,8.4485
2023-04-15T08:24:08.905Z,8.5447
2023-04-15T08:25:09.237Z,8.5547
2023-04-15T08:26:09.563Z,8.6222
2023-04-15T08:27:09.907Z,8.4508
2023-04-15T08:28:10.225Z,8.4220
2023-04-15T08:29:10.558Z,8.6698
2023-04-15T08:30:10.912Z,8.7855
2023-04-15T08:31:11.256Z,8.9673
2023-04-15T08:32:11.695Z,8.6535
2023-04-15T08:33:12.026Z,8.6671
2023-04-15T08:34:12.375Z,8.8925
2023-04-15T08:35:12.698Z,8.8814
2023-04-15T08:36:13.044Z,8.8430
2023-04-15T08:37:13.469Z,8.8838
2023-04-15T08:38:13.833Z,9.0536
2023-04-15T08:39:14.210Z,9.1308
2023-04-15T08:40:14.548Z,8.9857
2023-04-15T08:41:14.854Z,9.0526
2023-04-15T08:42:15.217Z,9.1185
2023-04-15T08:43:15.570Z,9.0738
2023-04-15T08:44:15.903Z,8.9740
2023-04-15T08:45:16.334Z,9.1019
2023-04-15T08:46:16.681Z,9.0163
2023-04-15T08:47:17.047Z,8.7473
2023-04-15T08:48:17.418Z,8.8401
2023-04-15T08:49:17.765Z,8.9370
2023-04-15T08:50:18.088Z,9.0761
2023-04-15T08:51:18.395Z,9.2049
2023-04-15T08:52:18.757Z,9.1702
2023-04-15T08:53:19.079Z,9.1539
2023-04-15T08:54:19.437Z,9.2625
2023-04-15T08:55:19.730Z,9.3030
2023-04-15T08:56:20.042Z,9.3134
2023-04-15T08:57:20.454Z,9.2083
2023-04-15T08:58:20.799Z,9.1041
2023-04-15T08:59:21.163Z,9.3083
2023-04-15T09:00:21.437Z,9.4533
2023-04-15T09:01:21.873Z,9.3718
2023-04-15T09:02:22.424Z,9.3945
2023-04-15T09:03:23.064Z,9.4834
2023-04-15T09:04:23.420Z,9.6248
2023-04-15T09:05:23.764Z,9.5798
2023-04-15T09:06:24.084Z,9.4486
2023-04-15T09:07:24.472Z,9.2619
2023-04-15T09:08:24.871Z,9.2381
2023-04-15T09:09:25.334Z,9.0862
2023-04-15T09:10:25.677Z,8.9848
2023-04-15T09:11:26.052Z,9.0720
2023-04-15T09:12:26.316Z,9.1596
2023-04-15T09:13:26.662Z,9.1726
2023-04-15T09:14:26.987Z,8.9435
2023-04-15T09:15:27.320Z,8.9029
2023-04-15T09:16:27.682Z,8.8465
2023-04-15T09:17:28.128Z,8.7454
2023-04-15T09:18:28.400Z,8.7174
2023-04-15T09:19:28.732Z,8.7248
2023-04-15T09:20:29.077Z,8.8198
2023-04-15T09:21:29.373Z,9.0410
2023-04-15T09:22:29.708Z,9.1444
2023-04-15T09:23:30.155Z,9.1542
2023-04-15T09:24:30.510Z,9.1548
2023-04-15T09:25:32.776Z,9.1911
2023-04-15T09:26:31.280Z,9.2756
2023-04-15T09:27:31.607Z,9.3533
2023-04-15T09:28:31.942Z,9.4489
2023-04-15T09:29:32.331Z,9.3897
2023-04-15T09:30:32.692Z,9.3782
2023-04-15T09:31:33.026Z,9.3450
2023-04-15T09:32:33.352Z,9.4380
2023-04-15T09:33:34.179Z,9.3631
2023-04-15T09:34:34.551Z,9.4364
2023-04-15T09:35:34.879Z,9.3678
2023-04-15T09:36:35.169Z,9.4868
2023-04-15T09:37:35.546Z,9.5648
2023-04-15T09:38:35.951Z,9.6540
2023-04-15T09:39:36.326Z,9.8014
2023-04-15T09:40:36.691Z,9.8549
2023-04-15T09:41:37.184Z,9.8819
2023-04-15T09:42:37.610Z,9.6854
2023-04-15T09:43:38.083Z,9.5236
2023-04-15T09:44:38.400Z,9.7495
2023-04-15T09:45:38.741Z,9.8902
2023-04-15T09:46:39.071Z,9.8872
2023-04-15T09:47:39.386Z,9.9348
2023-04-15T09:48:39.701Z,9.9452
2023-04-15T09:49:40.045Z,9.9650
2023-04-15T09:50:40.366Z,9.8235
2023-04-15T09:51:41.294Z,9.9530
2023-04-15T09:52:41.724Z,10.1359
2023-04-15T09:53:42.160Z,10.1013
2023-04-15T09:54:42.500Z,9.6016
2023-04-15T09:55:42.887Z,9.1016
2023-04-15T09:56:43.254Z,9.1200
2023-04-15T09:57:44.572Z,9.2424
2023-04-15T09:58:44.994Z,9.1719
2023-04-15T09:59:45.300Z,9.2232
2023-04-15T10:00:45.616Z,9.4551
2023-04-15T10:01:46.162Z,9.5895
2023-04-15T10:02:46.607Z,9.4431
2023-04-15T10:03:47.089Z,9.5950
2023-04-15T10:04:47.430Z,9.6953
2023-04-15T10:05:47.833Z,9.6119
2023-04-15T10:06:48.132Z,9.7708
2023-04-15T10:07:48.496Z,9.3232
2023-04-15T10:08:48.967Z,9.2838
2023-04-15T10:09:49.379Z,9.5227
2023-04-15T10:10:49.706Z,9.3895
2023-04-15T10:11:50.117Z,8.9947
2023-04-15T10:12:50.428Z,9.1414
2023-04-15T10:13:50.775Z,9.3263
2023-04-15T10:14:51.059Z,9.3744
2023-04-15T10:15:51.437Z,9.3674
2023-04-15T10:16:51.847Z,9.3976
2023-04-15T10:17:52.457Z,9.3750
2023-04-15T10:18:52.831Z,9.2576
2023-04-15T10:19:53.200Z,9.3996
2023-04-15T10:20:53.517Z,9.3277
2023-04-15T10:21:53.868Z,9.1579
2023-04-15T10:22:54.229Z,9.2848
2023-04-15T10:23:54.587Z,9.3736
2023-04-15T10:24:54.912Z,9.3720
2023-04-15T10:25:55.282Z,9.3765
2023-04-15T10:26:55.688Z,9.3815
2023-04-15T10:27:56.060Z,9.2679
2023-04-15T10:28:56.946Z,9.2870
2023-04-15T10:29:58.255Z,9.3680
2023-04-15T10:30:59.147Z,9.5193
2023-04-15T10:31:59.673Z,9.5345
2023-04-15T10:33:00.280Z,9.4594
2023-04-15T10:34:01.014Z,9.3991
2023-04-15T10:35:01.512Z,9.3942
2023-04-15T10:36:02.076Z,9.3860
2023-04-15T10:37:02.360Z,9.3446
2023-04-15T10:38:02.712Z,9.4583
2023-04-15T10:39:03.066Z,9.3807
2023-04-15T10:40:05.535Z,9.5041
2023-04-15T10:41:05.931Z,9.5229
2023-04-15T10:42:06.394Z,9.5561
2023-04-15T10:43:06.735Z,9.5408
2023-04-15T10:44:07.093Z,9.5389
2023-04-15T10:45:07.413Z,9.4937
2023-04-15T10:46:07.759Z,9.5660
2023-04-15T10:47:08.059Z,9.5629
2023-04-15T10:48:08.443Z,9.5828
2023-04-15T10:49:08.789Z,9.5660
2023-04-15T10:50:09.145Z,9.5900
2023-04-15T10:51:09.462Z,9.5359
2023-04-15T10:52:09.812Z,9.6103
2023-04-15T10:53:10.105Z,9.5847
2023-04-15T10:54:10.440Z,9.6356
2023-04-15T10:55:10.742Z,9.4893
2023-04-15T10:56:11.085Z,9.3090
2023-04-15T10:57:11.383Z,9.3180
2023-04-15T10:58:11.735Z,9.3285
2023-04-15T10:59:12.101Z,9.3247
2023-04-15T11:00:12.490Z,9.3966
2023-04-15T11:01:12.793Z,9.3181
2023-04-15T11:02:13.262Z,9.3112
2023-04-15T11:03:13.710Z,9.3930
2023-04-15T11:04:14.260Z,9.3716
2023-04-15T11:05:14.566Z,9.5342
2023-04-15T11:06:14.921Z,9.4119
2023-04-15T11:07:15.250Z,9.2481
2023-04-15T11:08:15.569Z,9.2889
2023-04-15T11:09:15.967Z,9.3435
2023-04-15T11:10:16.292Z,9.4461
2023-04-15T11:11:16.634Z,9.3932
2023-04-15T11:12:17.002Z,9.3204
2023-04-15T11:13:17.433Z,9.2299
2023-04-15T11:14:17.895Z,9.2491
2023-04-15T11:15:18.252Z,9.3296
2023-04-15T11:16:18.657Z,9.4814
2023-04-15T11:17:18.931Z,9.5701
2023-04-15T11:18:19.277Z,9.7325
2023-04-15T11:19:19.639Z,9.7148
2023-04-15T11:20:19.958Z,9.5064
2023-04-15T11:21:20.260Z,9.4864
2023-04-15T11:22:20.617Z,9.3151
2023-04-15T11:23:20.889Z,9.2626
2023-04-15T11:24:21.269Z,9.3001
2023-04-15T11:25:22.249Z,9.0772
2023-04-15T11:26:22.591Z,9.0913
2023-04-15T11:27:22.961Z,8.8836
2023-04-15T11:28:23.352Z,8.7334
2023-04-15T11:29:23.757Z,8.6917
2023-04-15T11:30:24.194Z,8.7297
2023-04-15T11:31:24.620Z,8.7379
2023-04-15T11:32:25.298Z,8.8401
2023-04-15T11:33:25.991Z,8.9084
2023-04-15T11:34:26.411Z,9.0898
2023-04-15T11:35:26.785Z,9.0111
2023-04-15T11:36:27.200Z,8.9875
2023-04-15T11:37:27.532Z,8.9485
2023-04-15T11:38:27.874Z,8.8725
2023-04-15T11:39:28.303Z,8.8009
2023-04-15T11:40:28.654Z,8.7814
2023-04-15T11:41:29.030Z,8.6558
2023-04-15T11:42:39.280Z,8.5978
2023-04-15T11:43:30.658Z,8.6379
2023-04-15T11:44:31.103Z,8.6394
2023-04-15T11:45:31.515Z,8.6617
2023-04-15T11:46:32.240Z,8.8097
2023-04-15T11:47:32.945Z,8.8014
2023-04-15T11:48:33.405Z,8.8923
2023-04-15T11:49:33.771Z,8.9226
2023-04-15T11:50:34.197Z,8.8890
2023-04-15T11:51:34.571Z,8.8045
2023-04-15T11:52:34.985Z,8.7010
2023-04-15T11:53:35.373Z,8.7934
2023-04-15T11:54:35.777Z,9.0487
2023-04-15T11:55:36.208Z,8.9743
2023-04-15T11:56:36.584Z,9.0523
2023-04-15T11:57:36.983Z,9.1053
2023-04-15T11:58:37.371Z,9.2009
2023-04-15T11:59:45.446Z,9.2000
2023-04-15T12:00:38.829Z,9.2172
2023-04-15T12:01:39.219Z,9.2851
2023-04-15T12:02:39.669Z,9.2913
2023-04-15T12:03:40.277Z,9.3269
2023-04-15T12:04:41.208Z,9.2474
2023-04-15T12:05:41.891Z,9.2040
2023-04-15T12:06:42.310Z,9.3918
2023-04-15T12:07:42.680Z,9.6636
2023-04-15T12:08:43.048Z,9.8838
2023-04-15T12:09:43.417Z,10.0912
2023-04-15T12:10:43.851Z,10.1725
2023-04-15T12:11:44.223Z,10.1122
2023-04-15T12:12:44.581Z,10.1042
2023-04-15T12:13:44.989Z,9.9385
2023-04-15T12:14:45.331Z,9.7782
2023-04-15T12:15:45.735Z,9.7337
2023-04-15T12:16:48.632Z,9.7611
2023-04-15T12:17:51.726Z,9.9812
2023-04-15T12:18:50.021Z,10.0292
2023-04-15T12:19:50.367Z,9.9775
2023-04-15T12:20:50.776Z,9.7993
2023-04-15T12:21:51.154Z,9.6946
2023-04-15T12:22:51.871Z,9.9926
2023-04-15T12:23:52.178Z,10.2629
2023-04-15T12:24:52.542Z,10.5236
2023-04-15T12:25:52.940Z,10.5490
2023-04-15T12:26:53.296Z,10.5342
2023-04-15T12:27:53.673Z,10.5358
2023-04-15T12:28:53.991Z,10.5075
2023-04-15T12:29:54.363Z,10.4108
2023-04-15T12:30:54.742Z,10.3780
2023-04-15T12:31:55.130Z,10.4137